Scurry, Texas
Current Conditions -  °F | °C
As of 1:53 PM on Saturday 20 Dec 2014 (Local Time) from KTRL Reporting Station
Overcast Overcast  
Wind Chill:   Ceiling: 600
Heat Index:   Visibility: 7mi
Dew Point:   Wind: 3mph
Humidity: 83%   Direction: 20°NNE
Pressure: 30.21"   Gusts: NA
Location:  32.52°N, 96.38°W
Report Text: KTRL 201953Z AUTO 02003KT 7SM OVC006 09/07 A3021 RMK AO2 CIG 006V010 SLP230 T00940067
Loading
Personal Weather Stations






























Interactive Weather Map New forecast layout! Learn more

10-Day Weather Forecast

Advertisements
Track Severe Weather on mobile